Time;durP1;ratioP1;P1;durP2;ratioP2;P2;SDS_P1;SDS_P2;PMS_P1;PMS_P2;Temp;Humidity;BMP_temperature;BMP_pressure;BME280_temperature;BME280_humidity;BME280_pressure;Samples;Min_cycle;Max_cycle;Signal;HPM_P1;HPM_P2
2023/06/06 00:01:32;;;;;;;;;11.33;10.00;;;;;;;;4976653;28;45742;-73
2023/06/06 00:03:57;;;;;;;;;14.00;10.33;;;;;;;;4970445;28;45677;-73
2023/06/06 00:06:24;;;;;;;;;12.67;9.67;;;;;;;;4968031;28;46171;-72
2023/06/06 00:08:50;;;;;;;;;15.67;13.33;;;;;;;;4973402;28;45483;-72
2023/06/06 00:11:15;;;;;;;;;10.33;10.00;;;;;;;;4981184;28;45713;-73
2023/06/06 00:13:42;;;;;;;;;9.00;8.00;;;;;;;;4977742;28;45431;-73
2023/06/06 00:16:07;;;;;;;;;11.67;9.33;;;;;;;;4976575;28;46251;-72
2023/06/06 00:18:32;;;;;;;;;11.67;10.00;;;;;;;;4978675;28;45628;-74
2023/06/06 00:20:58;;;;;;;;;10.33;8.67;;;;;;;;4974796;28;45282;-73
2023/06/06 00:23:23;;;;;;;;;10.00;9.00;;;;;;;;4974047;28;45520;-73
2023/06/06 00:25:49;;;;;;;;;9.33;9.33;;;;;;;;4974727;28;46519;-73
2023/06/06 00:28:15;;;;;;;;;9.33;6.00;;;;;;;;4976143;28;45407;-72
2023/06/06 00:30:40;;;;;;;;;4.67;4.33;;;;;;;;4977960;28;45581;-73
2023/06/06 00:33:05;;;;;;;;;11.33;8.67;;;;;;;;4978019;28;45352;-72
2023/06/06 00:35:31;;;;;;;;;10.67;8.33;;;;;;;;4981764;28;46283;-73
2023/06/06 00:37:56;;;;;;;;;12.00;11.67;;;;;;;;4982817;28;45545;-73
2023/06/06 00:40:21;;;;;;;;;16.67;10.00;;;;;;;;4963664;28;45651;-73
2023/06/06 00:42:46;;;;;;;;;11.33;8.67;;;;;;;;4976065;28;45442;-72
2023/06/06 00:45:12;;;;;;;;;16.33;12.67;;;;;;;;4983126;28;46527;-73
2023/06/06 00:47:37;;;;;;;;;8.00;5.00;;;;;;;;4973423;28;45763;-72
2023/06/06 00:50:03;;;;;;;;;9.67;6.00;;;;;;;;4981486;28;45635;-74
2023/06/06 00:52:30;;;;;;;;;11.00;10.00;;;;;;;;4990229;28;45598;-72
2023/06/06 00:54:56;;;;;;;;;12.33;10.33;;;;;;;;4983819;28;45685;-72
2023/06/06 00:57:21;;;;;;;;;8.33;5.00;;;;;;;;4975827;28;45417;-73
2023/06/06 00:59:46;;;;;;;;;13.00;11.33;;;;;;;;4978762;28;45353;-74
2023/06/06 01:02:17;;;;;;;;;15.33;13.33;;;;;;;;4976776;28;46883;-72
2023/06/06 01:04:43;;;;;;;;;14.33;10.33;;;;;;;;4975161;28;46382;-73
2023/06/06 01:07:09;;;;;;;;;12.00;11.33;;;;;;;;4974818;28;45847;-73
2023/06/06 01:09:35;;;;;;;;;10.67;8.67;;;;;;;;4973245;28;45438;-74
2023/06/06 01:12:00;;;;;;;;;15.33;13.67;;;;;;;;4972370;28;46168;-72
2023/06/06 01:14:37;;;;;;;;;13.67;9.67;;;;;;;;4965960;28;47036;-72
2023/06/06 01:17:03;;;;;;;;;11.67;10.67;;;;;;;;4975836;28;45532;-73
2023/06/06 01:19:29;;;;;;;;;9.67;9.67;;;;;;;;4993759;28;45334;-71
2023/06/06 01:21:55;;;;;;;;;14.33;10.67;;;;;;;;4976927;28;45335;-73
2023/06/06 01:24:21;;;;;;;;;14.67;13.00;;;;;;;;4987230;28;47240;-73
2023/06/06 01:26:47;;;;;;;;;12.00;9.67;;;;;;;;4984276;28;45681;-73
2023/06/06 01:29:12;;;;;;;;;18.33;12.33;;;;;;;;4980490;28;45935;-73
2023/06/06 01:31:44;;;;;;;;;11.67;8.33;;;;;;;;4976775;28;45633;-73
2023/06/06 01:34:15;;;;;;;;;18.00;14.67;;;;;;;;4970721;28;48167;-72
2023/06/06 01:36:54;;;;;;;;;16.33;12.67;;;;;;;;4969670;28;45646;-74
2023/06/06 01:39:21;;;;;;;;;15.00;12.33;;;;;;;;4979392;28;45677;-73
2023/06/06 01:41:48;;;;;;;;;18.67;11.00;;;;;;;;4985127;28;45406;-73
2023/06/06 01:44:14;;;;;;;;;16.00;7.00;;;;;;;;4985663;28;46201;-73
2023/06/06 01:46:39;;;;;;;;;18.67;12.00;;;;;;;;4983518;28;45987;-72
2023/06/06 01:49:06;;;;;;;;;17.67;14.67;;;;;;;;4973954;28;45548;-73
2023/06/06 01:51:31;;;;;;;;;14.33;12.00;;;;;;;;4970021;28;45565;-72
2023/06/06 01:53:57;;;;;;;;;11.67;10.67;;;;;;;;4986348;28;45714;-72
2023/06/06 01:56:23;;;;;;;;;15.00;14.33;;;;;;;;4977645;28;45478;-72
2023/06/06 01:58:48;;;;;;;;;14.33;11.00;;;;;;;;4985528;28;45775;-72
2023/06/06 02:01:13;;;;;;;;;18.33;11.67;;;;;;;;4982355;28;45867;-73
2023/06/06 02:03:39;;;;;;;;;12.33;9.00;;;;;;;;4983049;28;47302;-73
2023/06/06 02:06:04;;;;;;;;;12.00;9.33;;;;;;;;4984742;28;45229;-73
2023/06/06 02:08:30;;;;;;;;;12.00;8.67;;;;;;;;4977198;28;45394;-73
2023/06/06 02:10:55;;;;;;;;;10.33;10.33;;;;;;;;4977222;28;45518;-73
2023/06/06 02:13:21;;;;;;;;;19.33;14.67;;;;;;;;4982201;28;45421;-73
2023/06/06 02:15:46;;;;;;;;;18.00;14.67;;;;;;;;4977093;28;45809;-73
2023/06/06 02:18:11;;;;;;;;;17.67;14.00;;;;;;;;4972211;28;45356;-72
2023/06/06 02:20:37;;;;;;;;;12.33;9.00;;;;;;;;4990304;28;45309;-73
2023/06/06 02:23:02;;;;;;;;;14.00;11.33;;;;;;;;4986994;28;46043;-74
2023/06/06 02:25:27;;;;;;;;;15.00;13.00;;;;;;;;4976194;28;46219;-72
2023/06/06 02:27:53;;;;;;;;;18.00;16.00;;;;;;;;4973338;28;45753;-72
2023/06/06 02:30:19;;;;;;;;;16.33;13.67;;;;;;;;4973256;28;45326;-73
2023/06/06 02:32:45;;;;;;;;;23.67;15.33;;;;;;;;4969473;28;46134;-73
2023/06/06 02:35:10;;;;;;;;;17.33;14.00;;;;;;;;4980605;28;46126;-72
2023/06/06 02:37:36;;;;;;;;;16.33;15.33;;;;;;;;4983233;28;45569;-71
2023/06/06 02:40:08;;;;;;;;;14.67;13.67;;;;;;;;4985039;28;45340;-72
2023/06/06 02:42:33;;;;;;;;;17.33;13.00;;;;;;;;4970322;28;46264;-74
2023/06/06 02:44:58;;;;;;;;;20.33;17.00;;;;;;;;4967840;28;45741;-73
2023/06/06 02:47:24;;;;;;;;;13.33;10.67;;;;;;;;4983576;28;45510;-72
2023/06/06 02:49:49;;;;;;;;;22.00;14.67;;;;;;;;4973563;28;47245;-71
2023/06/06 02:52:14;;;;;;;;;22.00;17.00;;;;;;;;4986434;28;45607;-71
2023/06/06 02:54:40;;;;;;;;;19.33;15.67;;;;;;;;4985865;28;45408;-71
2023/06/06 02:57:05;;;;;;;;;17.00;15.67;;;;;;;;4986523;28;45472;-73
2023/06/06 02:59:30;;;;;;;;;18.67;13.67;;;;;;;;4982572;28;47371;-72
2023/06/06 03:01:55;;;;;;;;;22.67;18.33;;;;;;;;4983141;28;45449;-72
2023/06/06 03:04:21;;;;;;;;;16.33;14.33;;;;;;;;4982605;28;45413;-74
2023/06/06 03:06:48;;;;;;;;;21.67;18.00;;;;;;;;4987271;28;45850;-73
2023/06/06 03:09:13;;;;;;;;;18.67;13.67;;;;;;;;4982673;28;45708;-73
2023/06/06 03:11:38;;;;;;;;;15.00;15.00;;;;;;;;4987291;28;46202;-74
2023/06/06 03:14:04;;;;;;;;;15.33;12.00;;;;;;;;4978104;28;45479;-73
2023/06/06 03:16:30;;;;;;;;;25.67;18.33;;;;;;;;4972260;28;45354;-73
2023/06/06 03:18:55;;;;;;;;;25.33;19.00;;;;;;;;4971677;28;46010;-73
2023/06/06 03:21:21;;;;;;;;;20.00;17.67;;;;;;;;4974872;28;45647;-72
2023/06/06 03:23:46;;;;;;;;;19.67;15.33;;;;;;;;4978299;28;45449;-72
2023/06/06 03:26:12;;;;;;;;;20.00;17.33;;;;;;;;4965793;28;45303;-73
2023/06/06 03:28:38;;;;;;;;;20.00;18.00;;;;;;;;4979016;28;45888;-73
2023/06/06 03:31:07;;;;;;;;;17.67;15.33;;;;;;;;4971540;28;48071;-73
2023/06/06 03:33:32;;;;;;;;;20.33;16.33;;;;;;;;4975410;28;46679;-72
2023/06/06 03:35:58;;;;;;;;;22.33;19.00;;;;;;;;4977235;28;45733;-73
2023/06/06 03:38:23;;;;;;;;;19.67;16.33;;;;;;;;4978205;28;45988;-73
2023/06/06 03:40:49;;;;;;;;;20.00;18.33;;;;;;;;4970840;28;47915;-73
2023/06/06 03:43:15;;;;;;;;;20.33;17.00;;;;;;;;4981178;28;45430;-74
2023/06/06 03:45:40;;;;;;;;;25.00;18.67;;;;;;;;4977073;28;45655;-73
2023/06/06 03:48:06;;;;;;;;;24.00;22.33;;;;;;;;4976389;28;45744;-72
2023/06/06 03:50:31;;;;;;;;;20.00;18.67;;;;;;;;4973168;28;47047;-73
2023/06/06 03:52:58;;;;;;;;;25.00;22.00;;;;;;;;4974658;28;45710;-73
2023/06/06 03:55:23;;;;;;;;;26.67;19.67;;;;;;;;4973543;28;45658;-73
2023/06/06 03:57:50;;;;;;;;;29.33;21.67;;;;;;;;4976216;28;45470;-73
2023/06/06 04:00:15;;;;;;;;;19.33;18.33;;;;;;;;4975788;28;47350;-74
2023/06/06 04:02:41;;;;;;;;;28.33;22.33;;;;;;;;4979616;28;45664;-73
2023/06/06 04:05:06;;;;;;;;;27.67;19.00;;;;;;;;4970135;28;45429;-73
2023/06/06 04:07:32;;;;;;;;;25.33;21.00;;;;;;;;4964441;28;45453;-72
2023/06/06 04:09:57;;;;;;;;;24.67;20.67;;;;;;;;4977556;28;45621;-74
2023/06/06 04:12:22;;;;;;;;;31.67;27.00;;;;;;;;4975704;28;45360;-75
2023/06/06 04:14:48;;;;;;;;;27.33;23.00;;;;;;;;4976502;28;45545;-74
2023/06/06 04:17:13;;;;;;;;;39.33;34.67;;;;;;;;4983335;28;46037;-74
2023/06/06 04:19:39;;;;;;;;;38.00;29.67;;;;;;;;4987852;28;45837;-74
2023/06/06 04:22:05;;;;;;;;;29.67;21.67;;;;;;;;4983944;28;45587;-73
2023/06/06 04:24:30;;;;;;;;;23.67;21.00;;;;;;;;4982912;28;45685;-73
2023/06/06 04:26:55;;;;;;;;;34.33;26.33;;;;;;;;4968560;28;45371;-73
2023/06/06 04:29:21;;;;;;;;;34.67;30.67;;;;;;;;4970883;28;45391;-72
2023/06/06 04:31:46;;;;;;;;;59.00;46.67;;;;;;;;4979184;28;45510;-72
2023/06/06 04:34:12;;;;;;;;;20.50;18.00;;;;;;;;4975097;28;45602;-73
2023/06/06 04:36:40;;;;;;;;;35.00;27.67;;;;;;;;4981248;28;45576;-74
2023/06/06 04:39:06;;;;;;;;;33.33;25.67;;;;;;;;4968330;28;45675;-73
2023/06/06 04:41:33;;;;;;;;;32.67;26.67;;;;;;;;4977084;28;45347;-73
2023/06/06 04:43:59;;;;;;;;;33.33;27.00;;;;;;;;4986990;28;45399;-74
2023/06/06 04:46:24;;;;;;;;;32.67;28.00;;;;;;;;4972265;28;45847;-72
2023/06/06 04:48:59;;;;;;;;;29.00;22.00;;;;;;;;4971352;28;45339;-74
2023/06/06 04:51:32;;;;;;;;;34.00;28.33;;;;;;;;4971876;28;45693;-73
2023/06/06 04:54:02;;;;;;;;;24.33;18.33;;;;;;;;4978985;28;45331;-74
2023/06/06 04:56:30;;;;;;;;;28.67;27.33;;;;;;;;4971049;28;46906;-71
2023/06/06 04:59:05;;;;;;;;;22.00;20.00;;;;;;;;4968662;28;45531;-74
2023/06/06 05:01:31;;;;;;;;;30.33;27.67;;;;;;;;4980240;28;46747;-70
2023/06/06 05:03:56;;;;;;;;;32.00;28.67;;;;;;;;4969476;28;45420;-73
2023/06/06 05:06:22;;;;;;;;;27.67;24.67;;;;;;;;4976856;28;45387;-72
2023/06/06 05:08:48;;;;;;;;;30.67;27.00;;;;;;;;4978978;28;45593;-71
2023/06/06 05:11:13;;;;;;;;;38.33;28.67;;;;;;;;4973028;28;45491;-72
2023/06/06 05:13:39;;;;;;;;;33.00;29.33;;;;;;;;4970666;28;45674;-69
2023/06/06 05:16:04;;;;;;;;;32.67;29.33;;;;;;;;4982359;28;45868;-71
2023/06/06 05:18:30;;;;;;;;;37.67;32.33;;;;;;;;4974261;28;45630;-70
2023/06/06 05:21:00;;;;;;;;;43.33;36.00;;;;;;;;4966224;28;45629;-71
2023/06/06 05:23:26;;;;;;;;;33.67;25.00;;;;;;;;4964773;28;45649;-73
2023/06/06 05:25:51;;;;;;;;;37.33;28.33;;;;;;;;4974564;28;45737;-72
2023/06/06 05:28:17;;;;;;;;;39.67;34.00;;;;;;;;4976517;28;46427;-72
2023/06/06 05:30:42;;;;;;;;;39.33;30.33;;;;;;;;4977013;28;45315;-70
2023/06/06 05:33:08;;;;;;;;;36.00;28.33;;;;;;;;4976380;28;45624;-71
2023/06/06 05:35:34;;;;;;;;;40.00;33.33;;;;;;;;4991161;28;45624;-74
2023/06/06 05:37:59;;;;;;;;;31.33;27.67;;;;;;;;4994903;28;45970;-73
2023/06/06 05:40:24;;;;;;;;;38.67;30.33;;;;;;;;4987541;28;45688;-71
2023/06/06 05:42:50;;;;;;;;;26.33;20.67;;;;;;;;4981914;28;45377;-73
2023/06/06 05:45:15;;;;;;;;;33.00;27.67;;;;;;;;4978738;28;45545;-71
2023/06/06 05:47:40;;;;;;;;;37.67;30.33;;;;;;;;4978629;28;45305;-70
2023/06/06 05:50:06;;;;;;;;;34.67;29.67;;;;;;;;4976324;28;45347;-72
2023/06/06 05:52:31;;;;;;;;;36.00;27.67;;;;;;;;4966252;28;45292;-70
2023/06/06 05:55:00;;;;;;;;;36.67;33.00;;;;;;;;4971076;28;45367;-76
2023/06/06 05:57:25;;;;;;;;;25.33;25.00;;;;;;;;4972426;28;45966;-69
2023/06/06 05:59:51;;;;;;;;;39.00;32.00;;;;;;;;4976976;28;45760;-70
2023/06/06 06:02:16;;;;;;;;;32.67;27.00;;;;;;;;4980192;28;46594;-70
2023/06/06 06:04:42;;;;;;;;;34.33;30.00;;;;;;;;4987594;28;45611;-74
2023/06/06 06:07:08;;;;;;;;;45.00;37.00;;;;;;;;4981150;28;48279;-69
2023/06/06 06:09:33;;;;;;;;;33.00;31.00;;;;;;;;4985420;28;45852;-70
2023/06/06 06:11:58;;;;;;;;;32.00;27.33;;;;;;;;4974704;28;45477;-72
2023/06/06 06:14:24;;;;;;;;;30.00;27.33;;;;;;;;4981016;28;45650;-70
2023/06/06 06:16:49;;;;;;;;;42.33;35.00;;;;;;;;4979771;28;45961;-73
2023/06/06 06:19:14;;;;;;;;;42.33;33.67;;;;;;;;4977890;28;45691;-73
2023/06/06 06:21:40;;;;;;;;;36.67;33.33;;;;;;;;4974814;28;45398;-71
2023/06/06 06:24:05;;;;;;;;;37.67;29.67;;;;;;;;4967550;28;45859;-75
2023/06/06 06:26:31;;;;;;;;;40.00;32.00;;;;;;;;4980750;28;46276;-73
2023/06/06 06:28:56;;;;;;;;;38.33;33.33;;;;;;;;4990348;28;45409;-74
2023/06/06 06:31:22;;;;;;;;;38.67;34.00;;;;;;;;4988231;28;45868;-74
2023/06/06 06:33:48;;;;;;;;;37.33;28.67;;;;;;;;4964922;28;46007;-73
2023/06/06 06:36:13;;;;;;;;;29.33;29.33;;;;;;;;4992830;28;45419;-76
2023/06/06 06:38:38;;;;;;;;;30.33;26.67;;;;;;;;4991298;28;45515;-70
2023/06/06 06:41:03;;;;;;;;;40.00;29.67;;;;;;;;4984393;28;45378;-72
2023/06/06 06:43:29;;;;;;;;;47.00;30.00;;;;;;;;4985678;28;45477;-71
2023/06/06 06:45:54;;;;;;;;;39.67;31.67;;;;;;;;4989205;28;47185;-72
2023/06/06 06:48:19;;;;;;;;;39.67;32.67;;;;;;;;4979305;28;45398;-74
2023/06/06 06:50:45;;;;;;;;;35.67;30.67;;;;;;;;4978529;28;45378;-72
2023/06/06 06:53:12;;;;;;;;;42.67;34.00;;;;;;;;4987427;28;45681;-74
2023/06/06 06:55:38;;;;;;;;;41.33;34.00;;;;;;;;4974939;28;46232;-72
2023/06/06 06:58:03;;;;;;;;;28.67;26.00;;;;;;;;4976468;28;45746;-71
2023/06/06 07:00:33;;;;;;;;;43.67;32.67;;;;;;;;4981398;28;45469;-72
2023/06/06 07:02:59;;;;;;;;;29.33;22.00;;;;;;;;4976748;28;45925;-73
2023/06/06 07:05:25;;;;;;;;;35.00;30.00;;;;;;;;4976803;28;45397;-73
2023/06/06 07:07:52;;;;;;;;;34.33;29.00;;;;;;;;4976922;28;45356;-72
2023/06/06 07:10:18;;;;;;;;;38.67;30.00;;;;;;;;4986375;28;45839;-72
2023/06/06 07:12:48;;;;;;;;;42.33;32.33;;;;;;;;4969353;28;45466;-73
2023/06/06 07:15:13;;;;;;;;;35.00;31.33;;;;;;;;4980858;28;45930;-72
2023/06/06 07:17:39;;;;;;;;;40.00;30.00;;;;;;;;4975353;28;45491;-71
2023/06/06 07:20:05;;;;;;;;;34.67;27.33;;;;;;;;4975328;28;45409;-73
2023/06/06 07:22:35;;;;;;;;;38.33;32.33;;;;;;;;4986154;28;45703;-72
2023/06/06 07:25:01;;;;;;;;;28.67;28.33;;;;;;;;4987421;28;47159;-73
2023/06/06 07:27:27;;;;;;;;;29.67;28.00;;;;;;;;4986843;28;45389;-72
2023/06/06 07:29:52;;;;;;;;;38.00;30.33;;;;;;;;4980107;28;45570;-71
2023/06/06 07:32:18;;;;;;;;;35.67;29.00;;;;;;;;4978157;28;45798;-71
2023/06/06 07:34:43;;;;;;;;;38.33;32.00;;;;;;;;4972404;28;46342;-72
2023/06/06 07:37:08;;;;;;;;;36.33;30.00;;;;;;;;4979337;28;45406;-72
2023/06/06 07:39:34;;;;;;;;;33.33;30.67;;;;;;;;4982334;28;45422;-71
2023/06/06 07:41:59;;;;;;;;;36.00;27.33;;;;;;;;4991659;28;45377;-72
2023/06/06 07:44:24;;;;;;;;;36.33;24.33;;;;;;;;4986707;28;48239;-73
2023/06/06 07:46:49;;;;;;;;;30.33;26.33;;;;;;;;4983692;28;45545;-72
2023/06/06 07:49:14;;;;;;;;;31.00;27.00;;;;;;;;4968249;28;45331;-72
2023/06/06 07:51:40;;;;;;;;;33.00;28.00;;;;;;;;4979647;28;45424;-72
2023/06/06 07:54:06;;;;;;;;;33.33;31.33;;;;;;;;4988304;28;47281;-72
2023/06/06 07:56:36;;;;;;;;;27.00;24.67;;;;;;;;4980393;28;45759;-72
2023/06/06 07:59:02;;;;;;;;;30.00;26.33;;;;;;;;4974813;28;45394;-72
2023/06/06 08:01:28;;;;;;;;;34.67;31.00;;;;;;;;4981973;28;46078;-73
2023/06/06 08:03:54;;;;;;;;;27.00;25.33;;;;;;;;4991952;28;45361;-72
2023/06/06 08:06:28;;;;;;;;;32.00;28.67;;;;;;;;4970230;28;45758;-72
2023/06/06 08:08:54;;;;;;;;;23.33;19.00;;;;;;;;4986954;28;45342;-72
2023/06/06 08:11:19;;;;;;;;;27.33;23.33;;;;;;;;4978055;28;45912;-71
2023/06/06 08:13:45;;;;;;;;;41.00;32.00;;;;;;;;4973544;28;47497;-72
2023/06/06 08:16:10;;;;;;;;;37.00;30.67;;;;;;;;4977751;28;45566;-72
2023/06/06 08:18:37;;;;;;;;;35.00;30.33;;;;;;;;4977592;28;45396;-72
2023/06/06 08:21:02;;;;;;;;;34.00;28.33;;;;;;;;4979270;28;45731;-72
2023/06/06 08:23:28;;;;;;;;;28.67;26.00;;;;;;;;4971185;28;45338;-70
2023/06/06 08:25:55;;;;;;;;;34.67;27.33;;;;;;;;4969918;28;45381;-71
2023/06/06 08:28:22;;;;;;;;;25.33;23.00;;;;;;;;4976137;28;45712;-73
2023/06/06 08:30:47;;;;;;;;;26.67;24.00;;;;;;;;4980710;28;46425;-73
2023/06/06 08:33:12;;;;;;;;;27.33;24.33;;;;;;;;4989765;28;45708;-72
2023/06/06 08:35:37;;;;;;;;;35.33;28.67;;;;;;;;4987082;28;45310;-72
2023/06/06 08:38:03;;;;;;;;;14.00;7.67;;;;;;;;4976250;28;45430;-74
2023/06/06 08:40:28;;;;;;;;;22.33;20.67;;;;;;;;4977675;28;45688;-73
2023/06/06 08:42:55;;;;;;;;;29.33;28.00;;;;;;;;4981817;28;45714;-71
2023/06/06 08:45:21;;;;;;;;;29.67;24.00;;;;;;;;4981418;28;45386;-72
2023/06/06 08:47:48;;;;;;;;;16.00;15.33;;;;;;;;4989649;28;45695;-71
2023/06/06 08:50:14;;;;;;;;;25.33;22.00;;;;;;;;4989225;28;45370;-73
2023/06/06 08:52:39;;;;;;;;;28.67;24.00;;;;;;;;4978115;28;45701;-73
2023/06/06 08:55:06;;;;;;;;;25.33;21.00;;;;;;;;4990651;28;45611;-73
2023/06/06 08:57:32;;;;;;;;;21.67;21.67;;;;;;;;4995624;28;45612;-73
2023/06/06 08:59:57;;;;;;;;;20.33;18.67;;;;;;;;4994944;28;45558;-72
2023/06/06 09:02:23;;;;;;;;;25.33;24.33;;;;;;;;4995198;28;45719;-72
2023/06/06 09:04:50;;;;;;;;;25.00;23.00;;;;;;;;4988572;28;45823;-71
2023/06/06 09:07:15;;;;;;;;;31.67;25.33;;;;;;;;4989690;28;45695;-72
2023/06/06 09:09:42;;;;;;;;;26.33;24.67;;;;;;;;4994057;28;45402;-71
2023/06/06 09:12:08;;;;;;;;;22.00;21.00;;;;;;;;4977052;28;45847;-71
2023/06/06 09:14:33;;;;;;;;;21.33;19.67;;;;;;;;4980259;28;45687;-72
2023/06/06 09:16:59;;;;;;;;;34.00;30.33;;;;;;;;4978916;28;45328;-73
2023/06/06 09:19:25;;;;;;;;;20.33;18.00;;;;;;;;4976787;28;45361;-72
2023/06/06 09:21:50;;;;;;;;;27.67;26.00;;;;;;;;4978536;28;45969;-72
2023/06/06 09:24:16;;;;;;;;;26.50;26.50;;;;;;;;4987574;28;45417;-73
2023/06/06 09:26:41;;;;;;;;;28.00;26.33;;;;;;;;4983944;28;45420;-75
2023/06/06 09:29:07;;;;;;;;;26.67;24.33;;;;;;;;4981163;28;45307;-74
2023/06/06 09:31:37;;;;;;;;;32.67;26.33;;;;;;;;4984197;28;45387;-73
2023/06/06 09:34:03;;;;;;;;;27.33;24.33;;;;;;;;4987098;28;45444;-72
2023/06/06 09:36:28;;;;;;;;;24.67;22.33;;;;;;;;4987977;28;45454;-72
2023/06/06 09:38:55;;;;;;;;;19.67;18.67;;;;;;;;4982788;28;45937;-73
2023/06/06 09:41:21;;;;;;;;;17.67;17.67;;;;;;;;4977988;28;46372;-72
2023/06/06 09:43:47;;;;;;;;;25.00;22.00;;;;;;;;4974884;28;45376;-73
2023/06/06 09:46:15;;;;;;;;;28.33;25.67;;;;;;;;4981244;28;45598;-75
2023/06/06 09:48:41;;;;;;;;;22.00;16.67;;;;;;;;4980112;28;46545;-75
2023/06/06 09:51:09;;;;;;;;;19.00;18.00;;;;;;;;4978064;28;45514;-71
2023/06/06 09:53:35;;;;;;;;;20.67;19.33;;;;;;;;4977796;28;45519;-72
2023/06/06 09:56:03;;;;;;;;;27.00;24.67;;;;;;;;4986757;28;45629;-73
2023/06/06 09:58:29;;;;;;;;;32.67;27.67;;;;;;;;4984774;28;45738;-75
2023/06/06 10:00:58;;;;;;;;;26.33;25.00;;;;;;;;4986059;28;46139;-76
2023/06/06 10:03:24;;;;;;;;;25.33;24.00;;;;;;;;4973111;28;45451;-77
2023/06/06 10:05:50;;;;;;;;;22.67;21.00;;;;;;;;4975789;28;45316;-74
2023/06/06 10:08:19;;;;;;;;;22.00;18.00;;;;;;;;4992273;28;45475;-75
2023/06/06 10:10:46;;;;;;;;;23.67;22.33;;;;;;;;4968919;28;45579;-74
2023/06/06 10:13:30;;;;;;;;;25.00;23.33;;;;;;;;4977057;28;45687;-75
2023/06/06 10:15:57;;;;;;;;;27.00;23.00;;;;;;;;4965155;28;45523;-76
2023/06/06 10:18:23;;;;;;;;;24.00;24.00;;;;;;;;4971670;28;45595;-76
2023/06/06 10:20:48;;;;;;;;;27.67;18.33;;;;;;;;4971325;28;45430;-76
2023/06/06 10:23:14;;;;;;;;;25.00;19.67;;;;;;;;4967331;28;45570;-73
2023/06/06 10:25:40;;;;;;;;;23.33;19.33;;;;;;;;4979358;28;45689;-74
2023/06/06 10:28:24;;;;;;;;;23.33;23.00;;;;;;;;5016171;22;46389;-79
2023/06/06 10:30:58;;;;;;;;;26.00;25.00;;;;;;;;5011607;28;46413;-79
2023/06/06 10:33:42;;;;;;;;;20.67;17.67;;;;;;;;5012891;28;45863;-78
2023/06/06 10:36:09;;;;;;;;;26.33;24.00;;;;;;;;5008943;28;45827;-76
2023/06/06 10:38:35;;;;;;;;;22.33;22.00;;;;;;;;5010454;28;45699;-79
2023/06/06 10:41:00;;;;;;;;;21.00;20.67;;;;;;;;5010327;28;45828;-78
2023/06/06 10:43:35;;;;;;;;;25.33;22.00;;;;;;;;5009873;28;45837;-77
2023/06/06 10:46:01;;;;;;;;;26.67;21.67;;;;;;;;5002109;28;45965;-77
2023/06/06 10:48:39;;;;;;;;;22.00;20.00;;;;;;;;5012606;28;45521;-77
2023/06/06 10:51:05;;;;;;;;;20.00;18.00;;;;;;;;5004763;28;47201;-78
2023/06/06 10:53:30;;;;;;;;;27.00;22.67;;;;;;;;5008677;28;46289;-77
2023/06/06 10:55:56;;;;;;;;;18.67;17.67;;;;;;;;5008169;28;45672;-80
2023/06/06 10:58:23;;;;;;;;;23.33;19.00;;;;;;;;5007911;28;45708;-79
2023/06/06 11:00:57;;;;;;;;;23.33;21.00;;;;;;;;5007907;28;45851;-78
2023/06/06 11:03:39;;;;;;;;;24.67;20.00;;;;;;;;5004927;28;45784;-79
2023/06/06 11:06:06;;;;;;;;;23.33;21.00;;;;;;;;5002478;28;45816;-76
2023/06/06 11:08:32;;;;;;;;;18.67;14.33;;;;;;;;5006717;28;46441;-77
2023/06/06 11:11:16;;;;;;;;;19.67;19.67;;;;;;;;5005163;28;45677;-77
2023/06/06 11:14:11;;;;;;;;;23.00;20.33;;;;;;;;5005744;28;45628;-77
2023/06/06 11:16:45;;;;;;;;;25.00;22.00;;;;;;;;4997808;28;45974;-79
2023/06/06 11:19:14;;;;;;;;;29.00;23.33;;;;;;;;5011499;28;46193;-81
2023/06/06 11:21:40;;;;;;;;;14.67;14.67;;;;;;;;5012220;28;46101;-79
2023/06/06 11:24:06;;;;;;;;;21.67;18.00;;;;;;;;5008722;28;45830;-79
2023/06/06 11:26:34;;;;;;;;;19.67;16.67;;;;;;;;5012855;28;45806;-79
2023/06/06 11:29:02;;;;;;;;;30.33;24.00;;;;;;;;4996350;28;45831;-81
2023/06/06 11:31:27;;;;;;;;;13.33;12.67;;;;;;;;4997250;28;46545;-78
2023/06/06 11:34:02;;;;;;;;;24.00;20.33;;;;;;;;5009065;28;45560;-81
2023/06/06 11:36:29;;;;;;;;;24.67;18.67;;;;;;;;5010336;28;45499;-79
2023/06/06 11:38:57;;;;;;;;;21.00;15.67;;;;;;;;5008073;28;46514;-80
2023/06/06 11:41:22;;;;;;;;;24.33;22.33;;;;;;;;5000349;28;45765;-81
2023/06/06 11:43:49;;;;;;;;;19.00;18.00;;;;;;;;5006584;28;45758;-81
2023/06/06 11:46:15;;;;;;;;;20.33;18.33;;;;;;;;4995712;28;45541;-79
2023/06/06 11:48:40;;;;;;;;;20.00;20.00;;;;;;;;5012018;28;45471;-79
2023/06/06 11:51:12;;;;;;;;;25.67;22.00;;;;;;;;5013041;28;47194;-78
2023/06/06 11:53:37;;;;;;;;;18.33;16.00;;;;;;;;5005788;28;45959;-80
2023/06/06 11:56:03;;;;;;;;;16.00;14.67;;;;;;;;5007391;28;45758;-78
2023/06/06 11:58:29;;;;;;;;;18.33;16.33;;;;;;;;5012952;28;45495;-78
2023/06/06 12:00:55;;;;;;;;;20.00;18.67;;;;;;;;5008834;28;46236;-77
2023/06/06 12:03:24;;;;;;;;;28.67;25.33;;;;;;;;5013082;28;45395;-78
2023/06/06 12:06:06;;;;;;;;;20.33;18.33;;;;;;;;5012081;28;45424;-77
2023/06/06 12:08:35;;;;;;;;;21.33;18.33;;;;;;;;5014958;28;45878;-81
2023/06/06 12:11:20;;;;;;;;;16.67;16.33;;;;;;;;5020757;28;45476;-80
2023/06/06 12:13:48;;;;;;;;;18.33;18.00;;;;;;;;5007812;28;45469;-81
2023/06/06 12:16:23;;;;;;;;;23.33;20.33;;;;;;;;5014788;28;45726;-82
2023/06/06 12:18:49;;;;;;;;;20.00;19.00;;;;;;;;5011261;28;47061;-81
2023/06/06 12:21:16;;;;;;;;;21.33;19.33;;;;;;;;5014654;28;45780;-82
2023/06/06 12:23:45;;;;;;;;;20.33;17.67;;;;;;;;5005895;28;45381;-82
2023/06/06 12:26:18;;;;;;;;;19.33;17.00;;;;;;;;5012399;28;45543;-80
2023/06/06 12:28:53;;;;;;;;;21.67;18.67;;;;;;;;5016606;28;45430;-80
2023/06/06 12:31:19;;;;;;;;;27.67;20.33;;;;;;;;5012696;28;46543;-80
2023/06/06 12:33:45;;;;;;;;;27.33;19.33;;;;;;;;5015905;28;45626;-82
2023/06/06 12:36:13;;;;;;;;;22.33;19.67;;;;;;;;5015825;28;45416;-80
2023/06/06 12:38:39;;;;;;;;;20.33;19.33;;;;;;;;5016847;28;45439;-80
2023/06/06 12:41:04;;;;;;;;;22.33;21.33;;;;;;;;5015103;28;47076;-81
2023/06/06 12:43:30;;;;;;;;;18.00;16.00;;;;;;;;5013133;28;45673;-81
2023/06/06 12:45:55;;;;;;;;;19.00;19.00;;;;;;;;5015899;28;45670;-81
2023/06/06 12:48:25;;;;;;;;;21.33;19.00;;;;;;;;5017222;28;45360;-81
2023/06/06 12:50:51;;;;;;;;;23.33;20.33;;;;;;;;5008822;28;47542;-80
2023/06/06 12:53:18;;;;;;;;;18.33;17.00;;;;;;;;5010068;28;45689;-80
2023/06/06 12:55:43;;;;;;;;;17.00;14.00;;;;;;;;5016423;28;45715;-81
2023/06/06 12:58:10;;;;;;;;;19.00;17.33;;;;;;;;5015533;28;46099;-81
2023/06/06 13:00:35;;;;;;;;;18.00;16.33;;;;;;;;5008920;28;47269;-80
2023/06/06 13:03:00;;;;;;;;;18.67;15.00;;;;;;;;5005632;28;45792;-80
2023/06/06 13:05:26;;;;;;;;;16.33;13.33;;;;;;;;5010418;28;45466;-79
2023/06/06 13:07:51;;;;;;;;;18.67;16.33;;;;;;;;4995990;28;45437;-79
2023/06/06 13:10:17;;;;;;;;;16.33;15.00;;;;;;;;5014101;28;46075;-79
2023/06/06 13:12:42;;;;;;;;;17.67;14.00;;;;;;;;5008553;28;45858;-79
2023/06/06 13:15:08;;;;;;;;;12.67;11.67;;;;;;;;5007040;28;46266;-79
2023/06/06 13:17:33;;;;;;;;;13.00;9.33;;;;;;;;5011550;28;45454;-79
2023/06/06 13:19:59;;;;;;;;;16.00;14.33;;;;;;;;5009804;28;45560;-80
2023/06/06 13:22:24;;;;;;;;;18.67;15.33;;;;;;;;5015759;28;45391;-80
2023/06/06 13:24:50;;;;;;;;;9.67;9.67;;;;;;;;5011467;28;45769;-80
2023/06/06 13:27:15;;;;;;;;;9.67;9.67;;;;;;;;5012129;28;45588;-80
2023/06/06 13:29:41;;;;;;;;;16.33;13.00;;;;;;;;5001064;28;47567;-81
2023/06/06 13:32:07;;;;;;;;;14.00;12.00;;;;;;;;5012701;28;45993;-80
2023/06/06 13:34:32;;;;;;;;;12.00;11.33;;;;;;;;5014122;28;45390;-80
2023/06/06 13:37:01;;;;;;;;;14.33;12.33;;;;;;;;5015225;28;45708;-80
2023/06/06 13:39:26;;;;;;;;;16.00;10.33;;;;;;;;5016175;28;46139;-81
2023/06/06 13:41:52;;;;;;;;;10.33;10.33;;;;;;;;5006008;28;45731;-83
2023/06/06 13:44:17;;;;;;;;;12.33;12.33;;;;;;;;5014531;28;45600;-82
2023/06/06 13:46:43;;;;;;;;;14.00;13.00;;;;;;;;5011931;28;45513;-82
2023/06/06 13:49:12;;;;;;;;;14.67;10.33;;;;;;;;5015407;28;45810;-82
2023/06/06 13:51:48;;;;;;;;;11.00;8.33;;;;;;;;5013509;28;45702;-83
2023/06/06 13:54:14;;;;;;;;;12.00;9.33;;;;;;;;5009655;28;45694;-82
2023/06/06 13:56:40;;;;;;;;;10.67;8.33;;;;;;;;5002051;28;45369;-80
2023/06/06 13:59:06;;;;;;;;;11.67;11.67;;;;;;;;5008722;28;45701;-81
2023/06/06 14:01:31;;;;;;;;;10.67;10.67;;;;;;;;5011036;28;45804;-80
2023/06/06 14:03:56;;;;;;;;;13.67;10.33;;;;;;;;5015757;28;45454;-80
2023/06/06 14:06:22;;;;;;;;;10.33;8.33;;;;;;;;5002822;28;45423;-81
2023/06/06 14:08:47;;;;;;;;;13.67;10.33;;;;;;;;5005767;28;46366;-80
2023/06/06 14:11:13;;;;;;;;;9.00;9.00;;;;;;;;5003301;28;45534;-80
2023/06/06 14:13:39;;;;;;;;;8.33;8.33;;;;;;;;5015281;28;45402;-81
2023/06/06 14:16:05;;;;;;;;;7.00;7.00;;;;;;;;5016559;28;45421;-82